sensor_id;sensor_type;location;lat;lon;timestamp;pressure;altitude;pressure_sealevel;temperature;humidity
29215;BME280;16252;49.816;7.964;2024-01-15T00:02:11;98987.38;;;1.24;55.21
29215;BME280;16252;49.816;7.964;2024-01-15T00:04:40;98966.19;;;1.26;55.39
29215;BME280;16252;49.816;7.964;2024-01-15T00:07:06;98974.69;;;1.31;55.25
29215;BME280;16252;49.816;7.964;2024-01-15T00:09:31;98971.97;;;1.33;55.16
29215;BME280;16252;49.816;7.964;2024-01-15T00:11:56;98974.69;;;1.31;55.19
29215;BME280;16252;49.816;7.964;2024-01-15T00:14:22;98979.19;;;1.29;55.13
29215;BME280;16252;49.816;7.964;2024-01-15T00:16:47;98980.31;;;1.25;55.12
29215;BME280;16252;49.816;7.964;2024-01-15T00:19:14;98985.75;;;1.22;55.24
29215;BME280;16252;49.816;7.964;2024-01-15T00:21:39;98973.41;;;1.22;55.15
29215;BME280;16252;49.816;7.964;2024-01-15T00:24:04;98963.72;;;1.23;55.31
29215;BME280;16252;49.816;7.964;2024-01-15T00:26:30;98962.78;;;1.24;55.31
29215;BME280;16252;49.816;7.964;2024-01-15T00:28:55;98957.44;;;1.25;55.22
29215;BME280;16252;49.816;7.964;2024-01-15T00:31:20;98960.06;;;1.25;55.29
29215;BME280;16252;49.816;7.964;2024-01-15T00:33:46;98951.22;;;1.26;55.23
29215;BME280;16252;49.816;7.964;2024-01-15T00:36:11;98956.34;;;1.29;55.23
29215;BME280;16252;49.816;7.964;2024-01-15T00:38:36;98955.47;;;1.29;55.33
29215;BME280;16252;49.816;7.964;2024-01-15T00:41:01;98951.91;;;1.30;55.33
29215;BME280;16252;49.816;7.964;2024-01-15T00:43:27;98950.19;;;1.29;55.12
29215;BME280;16252;49.816;7.964;2024-01-15T00:45:53;98937.19;;;1.26;55.32
29215;BME280;16252;49.816;7.964;2024-01-15T00:48:18;98944.34;;;1.24;55.14
29215;BME280;16252;49.816;7.964;2024-01-15T00:50:43;98937.44;;;1.21;55.19
29215;BME280;16252;49.816;7.964;2024-01-15T00:53:08;98923.53;;;1.19;55.17
29215;BME280;16252;49.816;7.964;2024-01-15T00:55:33;98928.81;;;1.19;55.29
29215;BME280;16252;49.816;7.964;2024-01-15T00:57:58;98925.22;;;1.20;55.33
29215;BME280;16252;49.816;7.964;2024-01-15T01:00:24;98927.78;;;1.22;55.31
29215;BME280;16252;49.816;7.964;2024-01-15T01:02:49;98917.13;;;1.23;55.32
29215;BME280;16252;49.816;7.964;2024-01-15T01:05:14;98923.19;;;1.25;55.23
29215;BME280;16252;49.816;7.964;2024-01-15T01:07:39;98922.22;;;1.26;55.26
29215;BME280;16252;49.816;7.964;2024-01-15T01:10:04;98925.63;;;1.28;55.35
29215;BME280;16252;49.816;7.964;2024-01-15T01:12:30;98915.88;;;1.30;55.30
29215;BME280;16252;49.816;7.964;2024-01-15T01:14:55;98922.81;;;1.32;55.29
29215;BME280;16252;49.816;7.964;2024-01-15T01:17:20;98921.91;;;1.33;55.36
29215;BME280;16252;49.816;7.964;2024-01-15T01:19:45;98920.97;;;1.34;55.35
29215;BME280;16252;49.816;7.964;2024-01-15T01:22:11;98923.53;;;1.35;55.38
29215;BME280;16252;49.816;7.964;2024-01-15T01:24:36;98914.59;;;1.38;55.40
29215;BME280;16252;49.816;7.964;2024-01-15T01:27:01;98913.66;;;1.39;55.38
29215;BME280;16252;49.816;7.964;2024-01-15T01:29:26;98913.56;;;1.40;55.46
29215;BME280;16252;49.816;7.964;2024-01-15T01:31:51;98900.28;;;1.42;55.41
29215;BME280;16252;49.816;7.964;2024-01-15T01:34:17;98896.75;;;1.43;55.37
29215;BME280;16252;49.816;7.964;2024-01-15T01:36:42;98886.97;;;1.45;55.38
29215;BME280;16252;49.816;7.964;2024-01-15T01:39:08;98902.59;;;1.48;55.51
29215;BME280;16252;49.816;7.964;2024-01-15T01:41:34;98905.81;;;1.53;55.53
29215;BME280;16252;49.816;7.964;2024-01-15T01:43:59;98901.13;;;1.58;55.44
29215;BME280;16252;49.816;7.964;2024-01-15T01:46:24;98922.91;;;1.62;55.47
29215;BME280;16252;49.816;7.964;2024-01-15T01:48:51;98925.38;;;1.65;55.33
29215;BME280;16252;49.816;7.964;2024-01-15T01:51:16;98920.84;;;1.67;55.28
29215;BME280;16252;49.816;7.964;2024-01-15T01:53:43;98922.47;;;1.69;55.32
29215;BME280;16252;49.816;7.964;2024-01-15T01:56:09;98925.09;;;1.69;55.41
29215;BME280;16252;49.816;7.964;2024-01-15T01:58:34;98927.84;;;1.68;55.31
29215;BME280;16252;49.816;7.964;2024-01-15T02:01:00;98933.09;;;1.68;55.33
29215;BME280;16252;49.816;7.964;2024-01-15T02:03:26;98944.50;;;1.68;55.38
29215;BME280;16252;49.816;7.964;2024-01-15T02:05:52;98945.28;;;1.70;55.28
29215;BME280;16252;49.816;7.964;2024-01-15T02:08:18;98945.00;;;1.75;55.32
29215;BME280;16252;49.816;7.964;2024-01-15T02:10:43;98937.75;;;1.79;55.41
29215;BME280;16252;49.816;7.964;2024-01-15T02:13:08;98939.31;;;1.83;55.29
29215;BME280;16252;49.816;7.964;2024-01-15T02:15:33;98940.81;;;1.87;55.33
29215;BME280;16252;49.816;7.964;2024-01-15T02:18:03;98936.28;;;1.89;55.35
29215;BME280;16252;49.816;7.964;2024-01-15T02:20:28;98937.97;;;1.90;55.38
29215;BME280;16252;49.816;7.964;2024-01-15T02:22:54;98943.25;;;1.90;55.31
29215;BME280;16252;49.816;7.964;2024-01-15T02:25:19;98940.53;;;1.91;55.38
29215;BME280;16252;49.816;7.964;2024-01-15T02:27:45;98929.16;;;1.91;55.26
29215;BME280;16252;49.816;7.964;2024-01-15T02:30:11;98931.03;;;1.89;55.30
29215;BME280;16252;49.816;7.964;2024-01-15T02:32:36;98934.59;;;1.88;55.37
29215;BME280;16252;49.816;7.964;2024-01-15T02:35:01;98931.97;;;1.88;55.26
29215;BME280;16252;49.816;7.964;2024-01-15T02:37:27;98928.56;;;1.86;55.39
29215;BME280;16252;49.816;7.964;2024-01-15T02:39:52;98916.22;;;1.86;55.40
29215;BME280;16252;49.816;7.964;2024-01-15T02:42:17;98915.38;;;1.86;55.29
29215;BME280;16252;49.816;7.964;2024-01-15T02:44:42;98904.91;;;1.84;55.31
29215;BME280;16252;49.816;7.964;2024-01-15T02:47:08;98901.59;;;1.81;55.34
29215;BME280;16252;49.816;7.964;2024-01-15T02:49:33;98907.91;;;1.78;55.30
29215;BME280;16252;49.816;7.964;2024-01-15T02:51:58;98907.97;;;1.77;55.28
29215;BME280;16252;49.816;7.964;2024-01-15T02:54:26;98904.69;;;1.73;55.24
29215;BME280;16252;49.816;7.964;2024-01-15T02:56:51;98896.09;;;1.69;55.22
29215;BME280;16252;49.816;7.964;2024-01-15T02:59:16;98886.56;;;1.67;55.32
29215;BME280;16252;49.816;7.964;2024-01-15T03:01:41;98890.22;;;1.64;55.30
29215;BME280;16252;49.816;7.964;2024-01-15T03:04:06;98878.94;;;1.62;55.24
29215;BME280;16252;49.816;7.964;2024-01-15T03:06:32;98886.09;;;1.60;55.35
29215;BME280;16252;49.816;7.964;2024-01-15T03:08:57;98889.56;;;1.61;55.38
29215;BME280;16252;49.816;7.964;2024-01-15T03:11:22;98886.16;;;1.59;55.30
29215;BME280;16252;49.816;7.964;2024-01-15T03:13:47;98894.00;;;1.60;55.51
29215;BME280;16252;49.816;7.964;2024-01-15T03:16:12;98895.69;;;1.61;55.45
29215;BME280;16252;49.816;7.964;2024-01-15T03:18:37;98885.06;;;1.63;55.45
29215;BME280;16252;49.816;7.964;2024-01-15T03:21:03;98892.03;;;1.64;55.48
29215;BME280;16252;49.816;7.964;2024-01-15T03:23:29;98890.22;;;1.64;55.38
29215;BME280;16252;49.816;7.964;2024-01-15T03:25:54;98892.88;;;1.64;55.40
29215;BME280;16252;49.816;7.964;2024-01-15T03:28:20;98878.75;;;1.65;55.42
29215;BME280;16252;49.816;7.964;2024-01-15T03:30:45;98872.66;;;1.65;55.35
29215;BME280;16252;49.816;7.964;2024-01-15T03:33:10;98877.91;;;1.65;55.39
29215;BME280;16252;49.816;7.964;2024-01-15T03:35:35;98873.50;;;1.65;55.53
29215;BME280;16252;49.816;7.964;2024-01-15T03:38:00;98883.09;;;1.66;55.46
29215;BME280;16252;49.816;7.964;2024-01-15T03:40:25;98877.75;;;1.68;55.59
29215;BME280;16252;49.816;7.964;2024-01-15T03:42:51;98880.25;;;1.69;55.62
29215;BME280;16252;49.816;7.964;2024-01-15T03:45:16;98876.72;;;1.70;55.57
29215;BME280;16252;49.816;7.964;2024-01-15T03:47:41;98877.47;;;1.72;55.45
29215;BME280;16252;49.816;7.964;2024-01-15T03:50:06;98872.00;;;1.76;55.61
29215;BME280;16252;49.816;7.964;2024-01-15T03:52:31;98873.63;;;1.78;55.60
29215;BME280;16252;49.816;7.964;2024-01-15T03:54:57;98854.31;;;1.78;55.49
29215;BME280;16252;49.816;7.964;2024-01-15T03:57:22;98846.31;;;1.79;55.45
29215;BME280;16252;49.816;7.964;2024-01-15T03:59:47;98850.66;;;1.80;55.47
29215;BME280;16252;49.816;7.964;2024-01-15T04:02:12;98844.50;;;1.80;55.46
29215;BME280;16252;49.816;7.964;2024-01-15T04:04:40;98831.44;;;1.78;55.52
29215;BME280;16252;49.816;7.964;2024-01-15T04:07:05;98819.94;;;1.79;55.54
29215;BME280;16252;49.816;7.964;2024-01-15T04:09:31;98819.09;;;1.79;55.67
29215;BME280;16252;49.816;7.964;2024-01-15T04:11:56;98805.06;;;1.78;55.49
29215;BME280;16252;49.816;7.964;2024-01-15T04:14:21;98775.44;;;1.59;55.38
29215;BME280;16252;49.816;7.964;2024-01-15T04:16:46;98804.22;;;1.78;55.47
29215;BME280;16252;49.816;7.964;2024-01-15T04:19:11;98813.88;;;1.77;55.58
29215;BME280;16252;49.816;7.964;2024-01-15T04:21:36;98820.03;;;1.78;55.46
29215;BME280;16252;49.816;7.964;2024-01-15T04:24:02;98824.44;;;1.77;55.48
29215;BME280;16252;49.816;7.964;2024-01-15T04:26:27;98822.69;;;1.78;55.61
29215;BME280;16252;49.816;7.964;2024-01-15T04:28:52;98811.19;;;1.79;55.56
29215;BME280;16252;49.816;7.964;2024-01-15T04:31:21;98810.22;;;1.80;55.52
29215;BME280;16252;49.816;7.964;2024-01-15T04:33:46;98809.31;;;1.81;55.53
29215;BME280;16252;49.816;7.964;2024-01-15T04:36:11;98821.53;;;1.82;55.61
29215;BME280;16252;49.816;7.964;2024-01-15T04:38:36;98822.22;;;1.85;55.57
29215;BME280;16252;49.816;7.964;2024-01-15T04:41:02;98816.84;;;1.87;55.71
29215;BME280;16252;49.816;7.964;2024-01-15T04:43:27;98822.78;;;1.90;55.61
29215;BME280;16252;49.816;7.964;2024-01-15T04:45:52;98830.59;;;1.92;55.53
29215;BME280;16252;49.816;7.964;2024-01-15T04:48:17;98832.19;;;1.94;55.59
29215;BME280;16252;49.816;7.964;2024-01-15T04:50:42;98817.25;;;1.95;55.53
29215;BME280;16252;49.816;7.964;2024-01-15T04:53:07;98812.81;;;1.95;55.63
29215;BME280;16252;49.816;7.964;2024-01-15T04:55:33;98813.66;;;1.96;55.59
29215;BME280;16252;49.816;7.964;2024-01-15T04:57:58;98810.00;;;1.99;55.46
29215;BME280;16252;49.816;7.964;2024-01-15T05:00:23;98811.78;;;1.98;55.52
29215;BME280;16252;49.816;7.964;2024-01-15T05:02:48;98817.91;;;1.99;55.55
29215;BME280;16252;49.816;7.964;2024-01-15T05:05:13;98812.53;;;2.00;55.62
29215;BME280;16252;49.816;7.964;2024-01-15T05:07:38;98808.13;;;2.01;55.59
29215;BME280;16252;49.816;7.964;2024-01-15T05:10:04;98802.00;;;2.00;55.57
29215;BME280;16252;49.816;7.964;2024-01-15T05:12:29;98800.28;;;1.99;55.44
29215;BME280;16252;49.816;7.964;2024-01-15T05:14:54;98795.13;;;1.98;55.47
29215;BME280;16252;49.816;7.964;2024-01-15T05:17:19;98792.63;;;1.94;55.54
29215;BME280;16252;49.816;7.964;2024-01-15T05:19:44;98796.22;;;1.93;55.47
29215;BME280;16252;49.816;7.964;2024-01-15T05:22:10;98802.47;;;1.92;55.48
29215;BME280;16252;49.816;7.964;2024-01-15T05:24:35;98794.63;;;1.91;55.57
29215;BME280;16252;49.816;7.964;2024-01-15T05:27:00;98793.78;;;1.90;55.55
29215;BME280;16252;49.816;7.964;2024-01-15T05:29:26;98791.22;;;1.89;55.53
29215;BME280;16252;49.816;7.964;2024-01-15T05:31:51;98793.84;;;1.89;55.65
29215;BME280;16252;49.816;7.964;2024-01-15T05:34:17;98801.69;;;1.90;55.58
29215;BME280;16252;49.816;7.964;2024-01-15T05:36:42;98800.75;;;1.91;55.77
29215;BME280;16252;49.816;7.964;2024-01-15T05:39:07;98802.25;;;1.95;55.51
29215;BME280;16252;49.816;7.964;2024-01-15T05:41:33;98787.19;;;1.98;55.67
29215;BME280;16252;49.816;7.964;2024-01-15T05:43:58;98806.41;;;2.00;55.66
29215;BME280;16252;49.816;7.964;2024-01-15T05:46:23;98809.91;;;2.00;55.69
29215;BME280;16252;49.816;7.964;2024-01-15T05:48:48;98813.28;;;2.02;55.64
29215;BME280;16252;49.816;7.964;2024-01-15T05:51:13;98805.38;;;2.02;55.70
29215;BME280;16252;49.816;7.964;2024-01-15T05:53:38;98798.31;;;2.03;55.68
29215;BME280;16252;49.816;7.964;2024-01-15T05:56:05;98807.09;;;2.03;55.66
29215;BME280;16252;49.816;7.964;2024-01-15T05:58:30;98808.00;;;2.02;55.74
29215;BME280;16252;49.816;7.964;2024-01-15T06:00:56;98800.97;;;2.03;55.64
29215;BME280;16252;49.816;7.964;2024-01-15T06:03:21;98798.22;;;2.04;55.74
29215;BME280;16252;49.816;7.964;2024-01-15T06:05:46;98804.34;;;2.05;55.78
29215;BME280;16252;49.816;7.964;2024-01-15T06:08:11;98802.56;;;2.05;55.66
29215;BME280;16252;49.816;7.964;2024-01-15T06:10:36;98796.34;;;2.06;55.73
29215;BME280;16252;49.816;7.964;2024-01-15T06:13:01;98801.63;;;2.06;55.63
29215;BME280;16252;49.816;7.964;2024-01-15T06:15:27;98805.94;;;2.07;55.73
29215;BME280;16252;49.816;7.964;2024-01-15T06:17:52;98789.19;;;2.08;55.73
29215;BME280;16252;49.816;7.964;2024-01-15T06:20:18;98789.06;;;2.10;55.76
29215;BME280;16252;49.816;7.964;2024-01-15T06:22:43;98792.47;;;2.12;55.83
29215;BME280;16252;49.816;7.964;2024-01-15T06:25:09;98796.72;;;2.14;55.89
29215;BME280;16252;49.816;7.964;2024-01-15T06:27:34;98791.34;;;2.16;55.86
29215;BME280;16252;49.816;7.964;2024-01-15T06:29:59;98785.97;;;2.17;55.80
29215;BME280;16252;49.816;7.964;2024-01-15T06:32:24;98792.75;;;2.22;55.77
29215;BME280;16252;49.816;7.964;2024-01-15T06:34:49;98792.69;;;2.23;55.79
29215;BME280;16252;49.816;7.964;2024-01-15T06:37:15;98786.44;;;2.24;55.87
29215;BME280;16252;49.816;7.964;2024-01-15T06:39:40;98786.25;;;2.27;55.91
29215;BME280;16252;49.816;7.964;2024-01-15T06:42:06;98785.22;;;2.30;55.84
29215;BME280;16252;49.816;7.964;2024-01-15T06:44:31;98786.06;;;2.30;55.91
29215;BME280;16252;49.816;7.964;2024-01-15T06:46:56;98785.97;;;2.32;55.83
29215;BME280;16252;49.816;7.964;2024-01-15T06:49:25;98787.78;;;2.31;55.74
29215;BME280;16252;49.816;7.964;2024-01-15T06:51:50;98773.63;;;2.32;55.78
29215;BME280;16252;49.816;7.964;2024-01-15T06:54:15;98763.91;;;2.33;55.71
29215;BME280;16252;49.816;7.964;2024-01-15T06:56:41;98786.72;;;2.34;55.89
29215;BME280;16252;49.816;7.964;2024-01-15T06:59:06;98775.22;;;2.35;55.92
29215;BME280;16252;49.816;7.964;2024-01-15T07:01:31;98773.34;;;2.37;55.74
29215;BME280;16252;49.816;7.964;2024-01-15T07:03:56;98773.34;;;2.37;55.84
29215;BME280;16252;49.816;7.964;2024-01-15T07:06:21;98775.03;;;2.38;55.82
29215;BME280;16252;49.816;7.964;2024-01-15T07:08:47;98778.53;;;2.38;55.75
29215;BME280;16252;49.816;7.964;2024-01-15T07:11:12;98776.72;;;2.39;55.93
29215;BME280;16252;49.816;7.964;2024-01-15T07:13:37;98765.22;;;2.40;55.79
29215;BME280;16252;49.816;7.964;2024-01-15T07:16:02;98777.50;;;2.41;55.88
29215;BME280;16252;49.816;7.964;2024-01-15T07:18:27;98777.38;;;2.43;55.97
29215;BME280;16252;49.816;7.964;2024-01-15T07:20:53;98789.53;;;2.45;56.01
29215;BME280;16252;49.816;7.964;2024-01-15T07:23:18;98790.22;;;2.49;56.04
29215;BME280;16252;49.816;7.964;2024-01-15T07:25:43;98776.91;;;2.50;55.86
29215;BME280;16252;49.816;7.964;2024-01-15T07:28:08;98768.91;;;2.52;55.88
29215;BME280;16252;49.816;7.964;2024-01-15T07:30:33;98770.69;;;2.51;55.84
29215;BME280;16252;49.816;7.964;2024-01-15T07:32:59;98768.06;;;2.51;55.94
29215;BME280;16252;49.816;7.964;2024-01-15T07:35:24;98777.78;;;2.51;55.95
29215;BME280;16252;49.816;7.964;2024-01-15T07:37:49;98782.94;;;2.52;55.87
29215;BME280;16252;49.816;7.964;2024-01-15T07:40:14;98787.28;;;2.53;55.97
29215;BME280;16252;49.816;7.964;2024-01-15T07:42:40;98748.63;;;2.38;55.81
29215;BME280;16252;49.816;7.964;2024-01-15T07:45:05;98785.22;;;2.58;55.77
29215;BME280;16252;49.816;7.964;2024-01-15T07:47:30;98783.28;;;2.60;55.88
29215;BME280;16252;49.816;7.964;2024-01-15T07:49:56;98780.78;;;2.59;55.72
29215;BME280;16252;49.816;7.964;2024-01-15T07:52:21;98775.50;;;2.59;55.83
29215;BME280;16252;49.816;7.964;2024-01-15T07:54:46;98785.38;;;2.55;55.77
29215;BME280;16252;49.816;7.964;2024-01-15T07:57:11;98780.22;;;2.54;55.89
29215;BME280;16252;49.816;7.964;2024-01-15T07:59:36;98780.28;;;2.52;55.76
29215;BME280;16252;49.816;7.964;2024-01-15T08:02:02;98770.69;;;2.51;55.87
29215;BME280;16252;49.816;7.964;2024-01-15T08:04:27;98777.78;;;2.51;55.88
29215;BME280;16252;49.816;7.964;2024-01-15T08:06:52;98776.91;;;2.50;55.81
29215;BME280;16252;49.816;7.964;2024-01-15T08:09:18;98762.97;;;2.48;55.93
29215;BME280;16252;49.816;7.964;2024-01-15T08:11:43;98766.44;;;2.49;56.02
29215;BME280;16252;49.816;7.964;2024-01-15T08:14:09;98770.69;;;2.51;56.05
29215;BME280;16252;49.816;7.964;2024-01-15T08:16:34;98768.69;;;2.55;56.10
29215;BME280;16252;49.816;7.964;2024-01-15T08:19:00;98762.50;;;2.56;55.98
29215;BME280;16252;49.816;7.964;2024-01-15T08:21:25;98760.50;;;2.59;56.17
29215;BME280;16252;49.816;7.964;2024-01-15T08:23:50;98751.44;;;2.64;56.22
29215;BME280;16252;49.816;7.964;2024-01-15T08:26:15;98753.88;;;2.67;55.99
29215;BME280;16252;49.816;7.964;2024-01-15T08:28:41;98754.63;;;2.69;56.01
29215;BME280;16252;49.816;7.964;2024-01-15T08:31:06;98758.88;;;2.71;56.10
29215;BME280;16252;49.816;7.964;2024-01-15T08:33:31;98758.75;;;2.73;56.14
29215;BME280;16252;49.816;7.964;2024-01-15T08:35:56;98759.50;;;2.75;56.13
29215;BME280;16252;49.816;7.964;2024-01-15T08:38:21;98764.59;;;2.78;56.09
29215;BME280;16252;49.816;7.964;2024-01-15T08:40:47;98756.38;;;2.82;56.07
29215;BME280;16252;49.816;7.964;2024-01-15T08:43:13;98766.84;;;2.84;56.09
29215;BME280;16252;49.816;7.964;2024-01-15T08:45:38;98760.69;;;2.83;55.98
29215;BME280;16252;49.816;7.964;2024-01-15T08:48:03;98757.22;;;2.83;56.07
29215;BME280;16252;49.816;7.964;2024-01-15T08:50:29;98750.03;;;2.85;55.99
29215;BME280;16252;49.816;7.964;2024-01-15T08:52:54;98746.56;;;2.85;55.97
29215;BME280;16252;49.816;7.964;2024-01-15T08:55:19;98737.69;;;2.86;56.05
29215;BME280;16252;49.816;7.964;2024-01-15T08:57:47;98737.78;;;2.84;55.86
29215;BME280;16252;49.816;7.964;2024-01-15T09:00:12;98756.28;;;2.84;55.90
29215;BME280;16252;49.816;7.964;2024-01-15T09:02:38;98755.41;;;2.83;56.00
29215;BME280;16252;49.816;7.964;2024-01-15T09:05:03;98759.84;;;2.83;56.05
29215;BME280;16252;49.816;7.964;2024-01-15T09:07:29;98750.03;;;2.85;56.10
29215;BME280;16252;49.816;7.964;2024-01-15T09:09:54;98759.47;;;2.89;56.15
29215;BME280;16252;49.816;7.964;2024-01-15T09:12:19;98770.81;;;2.91;56.14
29215;BME280;16252;49.816;7.964;2024-01-15T09:14:46;98774.84;;;2.97;56.14
29215;BME280;16252;49.816;7.964;2024-01-15T09:17:11;98774.53;;;3.01;56.14
29215;BME280;16252;49.816;7.964;2024-01-15T09:19:36;98772.63;;;3.03;56.14
29215;BME280;16252;49.816;7.964;2024-01-15T09:22:01;98776.78;;;3.08;56.28
29215;BME280;16252;49.816;7.964;2024-01-15T09:24:27;98773.84;;;3.12;56.26
29215;BME280;16252;49.816;7.964;2024-01-15T09:26:52;98784.13;;;3.17;56.30
29215;BME280;16252;49.816;7.964;2024-01-15T09:29:17;98778.50;;;3.21;56.20
29215;BME280;16252;49.816;7.964;2024-01-15T09:31:43;98788.78;;;3.26;56.29
29215;BME280;16252;49.816;7.964;2024-01-15T09:34:08;98795.66;;;3.29;56.11
29215;BME280;16252;49.816;7.964;2024-01-15T09:36:38;98791.03;;;3.32;55.91
29215;BME280;16252;49.816;7.964;2024-01-15T09:39:03;98790.91;;;3.34;56.14
29215;BME280;16252;49.816;7.964;2024-01-15T09:41:29;98791.66;;;3.36;56.26
29215;BME280;16252;49.816;7.964;2024-01-15T09:43:54;98789.78;;;3.38;56.09
29215;BME280;16252;49.816;7.964;2024-01-15T09:46:19;98791.47;;;3.39;56.18
29215;BME280;16252;49.816;7.964;2024-01-15T09:48:44;98784.28;;;3.41;56.09
29215;BME280;16252;49.816;7.964;2024-01-15T09:51:10;98790.31;;;3.43;56.08
29215;BME280;16252;49.816;7.964;2024-01-15T09:53:35;98785.88;;;3.43;56.05
29215;BME280;16252;49.816;7.964;2024-01-15T09:56:02;98774.38;;;3.44;56.19
29215;BME280;16252;49.816;7.964;2024-01-15T09:58:28;98767.28;;;3.45;56.18
29215;BME280;16252;49.816;7.964;2024-01-15T10:00:54;98761.03;;;3.46;56.14
29215;BME280;16252;49.816;7.964;2024-01-15T10:03:20;98756.47;;;3.48;56.18
29215;BME280;16252;49.816;7.964;2024-01-15T10:05:46;98767.81;;;3.50;56.08
29215;BME280;16252;49.816;7.964;2024-01-15T10:08:11;98767.59;;;3.53;56.28
29215;BME280;16252;49.816;7.964;2024-01-15T10:10:36;98769.19;;;3.56;56.21
29215;BME280;16252;49.816;7.964;2024-01-15T10:13:03;98763.81;;;3.57;56.17
29215;BME280;16252;49.816;7.964;2024-01-15T10:15:29;98762.75;;;3.60;56.27
29215;BME280;16252;49.816;7.964;2024-01-15T10:17:54;98769.72;;;3.61;56.24
29215;BME280;16252;49.816;7.964;2024-01-15T10:20:19;98766.13;;;3.62;56.19
29215;BME280;16252;49.816;7.964;2024-01-15T10:22:47;98765.19;;;3.63;56.12
29215;BME280;16252;49.816;7.964;2024-01-15T10:25:13;98763.28;;;3.65;56.22
29215;BME280;16252;49.816;7.964;2024-01-15T10:27:38;98760.53;;;3.66;56.17
29215;BME280;16252;49.816;7.964;2024-01-15T10:30:05;98778.84;;;3.69;56.23
29215;BME280;16252;49.816;7.964;2024-01-15T10:32:31;98765.50;;;3.71;56.24
29215;BME280;16252;49.816;7.964;2024-01-15T10:34:56;98757.28;;;3.76;56.18
29215;BME280;16252;49.816;7.964;2024-01-15T10:37:21;98757.91;;;3.79;56.23
29215;BME280;16252;49.816;7.964;2024-01-15T10:39:48;98747.13;;;3.82;56.17
29215;BME280;16252;49.816;7.964;2024-01-15T10:42:14;98734.53;;;3.86;56.19
29215;BME280;16252;49.816;7.964;2024-01-15T10:44:40;98738.53;;;3.91;56.28
29215;BME280;16252;49.816;7.964;2024-01-15T10:47:06;98735.56;;;3.96;56.43
29215;BME280;16252;49.816;7.964;2024-01-15T10:49:31;98742.25;;;4.02;56.34
29215;BME280;16252;49.816;7.964;2024-01-15T10:51:57;98745.41;;;4.07;56.46
29215;BME280;16252;49.816;7.964;2024-01-15T10:54:23;98731.84;;;4.11;56.38
29215;BME280;16252;49.816;7.964;2024-01-15T10:56:49;98732.47;;;4.15;56.34
29215;BME280;16252;49.816;7.964;2024-01-15T10:59:14;98728.91;;;4.16;56.16
29215;BME280;16252;49.816;7.964;2024-01-15T11:01:41;98723.38;;;4.19;56.16
29215;BME280;16252;49.816;7.964;2024-01-15T11:04:06;98732.06;;;4.21;56.03
29215;BME280;16252;49.816;7.964;2024-01-15T11:06:40;98726.78;;;4.21;56.03
29215;BME280;16252;49.816;7.964;2024-01-15T11:09:07;98729.41;;;4.21;55.92
29215;BME280;16252;49.816;7.964;2024-01-15T11:11:34;98731.09;;;4.22;55.90
29215;BME280;16252;49.816;7.964;2024-01-15T11:13:59;98729.19;;;4.24;56.05
29215;BME280;16252;49.816;7.964;2024-01-15T11:16:25;98731.84;;;4.24;56.08
29215;BME280;16252;49.816;7.964;2024-01-15T11:19:12;98733.44;;;4.27;56.12
29215;BME280;16252;49.816;7.964;2024-01-15T11:21:41;98726.31;;;4.27;55.97
29215;BME280;16252;49.816;7.964;2024-01-15T11:24:07;98717.44;;;4.28;56.00
29215;BME280;16252;49.816;7.964;2024-01-15T11:29:02;98711.09;;;4.31;56.16
29215;BME280;16252;49.816;7.964;2024-01-15T11:31:28;98706.53;;;4.33;56.22
29215;BME280;16252;49.816;7.964;2024-01-15T11:33:54;98714.78;;;4.41;56.32
29215;BME280;16252;49.816;7.964;2024-01-15T11:36:20;98710.50;;;4.51;56.59
29215;BME280;16252;49.816;7.964;2024-01-15T11:38:45;98706.09;;;4.63;56.71
29215;BME280;16252;49.816;7.964;2024-01-15T11:41:14;98710.50;;;4.75;56.71
29215;BME280;16252;49.816;7.964;2024-01-15T11:43:42;98712.28;;;4.88;56.54
29215;BME280;16252;49.816;7.964;2024-01-15T11:46:11;98722.94;;;4.99;56.68
29215;BME280;16252;49.816;7.964;2024-01-15T11:48:43;98722.25;;;5.08;56.56
29215;BME280;16252;49.816;7.964;2024-01-15T11:51:12;98724.47;;;5.14;56.47
29215;BME280;16252;49.816;7.964;2024-01-15T11:53:43;98734.84;;;5.17;56.33
29215;BME280;16252;49.816;7.964;2024-01-15T11:56:12;98729.28;;;5.20;56.09
29215;BME280;16252;49.816;7.964;2024-01-15T11:58:39;98736.19;;;5.23;55.96
29215;BME280;16252;49.816;7.964;2024-01-15T12:01:05;98737.00;;;5.24;56.03
29215;BME280;16252;49.816;7.964;2024-01-15T12:03:31;98733.63;;;5.21;55.75
29215;BME280;16252;49.816;7.964;2024-01-15T12:05:57;98735.44;;;5.21;55.84
29215;BME280;16252;49.816;7.964;2024-01-15T12:08:23;98730.38;;;5.18;55.59
29215;BME280;16252;49.816;7.964;2024-01-15T12:10:48;98725.16;;;5.16;55.74
29215;BME280;16252;49.816;7.964;2024-01-15T12:13:14;98723.38;;;5.17;55.60
29215;BME280;16252;49.816;7.964;2024-01-15T12:15:40;98722.41;;;5.18;55.71
29215;BME280;16252;49.816;7.964;2024-01-15T12:18:07;98722.53;;;5.16;55.71
29215;BME280;16252;49.816;7.964;2024-01-15T12:20:32;98718.94;;;5.17;55.76
29215;BME280;16252;49.816;7.964;2024-01-15T12:22:58;98714.47;;;5.18;55.49
29215;BME280;16252;49.816;7.964;2024-01-15T12:25:24;98725.66;;;5.21;55.50
29215;BME280;16252;49.816;7.964;2024-01-15T12:27:49;98725.34;;;5.26;55.68
29215;BME280;16252;49.816;7.964;2024-01-15T12:30:15;98723.19;;;5.31;55.62
29215;BME280;16252;49.816;7.964;2024-01-15T12:32:40;98717.44;;;5.37;55.72
29215;BME280;16252;49.816;7.964;2024-01-15T12:35:07;98727.81;;;5.40;55.78
29215;BME280;16252;49.816;7.964;2024-01-15T12:37:32;98730.13;;;5.45;55.68
29215;BME280;16252;49.816;7.964;2024-01-15T12:39:58;98728.69;;;5.52;55.68
29215;BME280;16252;49.816;7.964;2024-01-15T12:42:24;98730.97;;;5.57;55.76
29215;BME280;16252;49.816;7.964;2024-01-15T12:44:49;98725.31;;;5.61;55.47
29215;BME280;16252;49.816;7.964;2024-01-15T12:47:14;98725.09;;;5.64;55.47
29215;BME280;16252;49.816;7.964;2024-01-15T12:49:42;98727.41;;;5.69;55.62
29215;BME280;16252;49.816;7.964;2024-01-15T12:52:08;98741.28;;;5.73;55.36
29215;BME280;16252;49.816;7.964;2024-01-15T12:54:33;98744.53;;;5.76;55.49
29215;BME280;16252;49.816;7.964;2024-01-15T12:56:58;98743.47;;;5.79;55.42
29215;BME280;16252;49.816;7.964;2024-01-15T12:59:24;98731.78;;;5.81;55.41
29215;BME280;16252;49.816;7.964;2024-01-15T13:01:49;98738.66;;;5.84;55.63
29215;BME280;16252;49.816;7.964;2024-01-15T13:04:21;98729.75;;;5.85;55.40